createdAt,value
2019-05-20T00:00:23.421Z,19.68
2019-05-20T00:01:23.394Z,19.75
2019-05-20T00:02:27.988Z,19.64
2019-05-20T00:03:23.395Z,19.62
2019-05-20T00:04:23.418Z,19.75
2019-05-20T00:05:23.696Z,19.78
2019-05-20T00:06:23.360Z,19.64
2019-05-20T00:07:23.345Z,19.76
2019-05-20T00:08:23.371Z,19.78
2019-05-20T00:09:23.315Z,19.72
2019-05-20T00:10:23.322Z,19.76
2019-05-20T00:11:23.494Z,19.80
2019-05-20T00:12:23.295Z,19.83
2019-05-20T00:13:23.272Z,19.85
2019-05-20T00:14:23.280Z,19.72
2019-05-20T00:15:23.259Z,19.86
2019-05-20T00:16:23.254Z,19.83
2019-05-20T00:17:23.562Z,19.82
2019-05-20T00:18:23.243Z,19.78
2019-05-20T00:19:23.242Z,19.83
2019-05-20T00:20:23.219Z,19.80
2019-05-20T00:21:23.256Z,19.76
2019-05-20T00:22:23.235Z,19.76
2019-05-20T00:23:23.517Z,19.78
2019-05-20T00:24:23.197Z,19.79
2019-05-20T00:25:23.160Z,19.82
2019-05-20T00:26:23.163Z,19.83
2019-05-20T00:27:23.186Z,19.82
2019-05-20T00:28:23.139Z,19.83
2019-05-20T00:29:23.437Z,19.89
2019-05-20T00:30:23.133Z,19.85
2019-05-20T00:31:23.106Z,19.80
2019-05-20T00:32:23.111Z,19.97
2019-05-20T00:33:23.099Z,20.00
2019-05-20T00:34:34.564Z,19.92
2019-05-20T00:35:23.081Z,19.92
2019-05-20T00:36:23.060Z,20.00
2019-05-20T00:37:23.055Z,19.95
2019-05-20T00:38:23.039Z,19.83
2019-05-20T00:39:23.312Z,19.80
2019-05-20T00:40:23.072Z,19.78
2019-05-20T00:41:23.030Z,19.75
2019-05-20T00:42:23.027Z,19.79
2019-05-20T00:43:23.035Z,19.83
2019-05-20T00:44:23.273Z,19.87
2019-05-20T00:45:23.004Z,19.82
2019-05-20T00:46:22.980Z,19.83
2019-05-20T00:47:22.991Z,19.82
2019-05-20T00:48:22.969Z,19.90
2019-05-20T00:49:23.275Z,19.87
2019-05-20T00:50:22.923Z,19.83
2019-05-20T00:51:22.935Z,19.87
2019-05-20T00:52:22.926Z,19.78
2019-05-20T00:53:22.913Z,19.80
2019-05-20T00:54:23.162Z,19.85
2019-05-20T00:55:22.886Z,19.86
2019-05-20T00:56:22.895Z,19.86
2019-05-20T00:57:22.893Z,19.80
2019-05-20T00:58:22.886Z,19.83
2019-05-20T00:59:23.194Z,19.80
2019-05-20T01:00:22.851Z,19.80
2019-05-20T01:01:22.820Z,19.80
2019-05-20T01:02:22.810Z,19.67
2019-05-20T01:03:22.808Z,19.78
2019-05-20T01:04:23.345Z,19.70
2019-05-20T01:05:22.811Z,19.72
2019-05-20T01:06:22.830Z,19.70
2019-05-20T01:07:22.787Z,19.67
2019-05-20T01:08:22.777Z,19.72
2019-05-20T01:09:23.203Z,19.64
2019-05-20T01:10:22.749Z,19.68
2019-05-20T01:11:22.753Z,19.68
2019-05-20T01:12:22.711Z,19.78
2019-05-20T01:13:22.722Z,19.72
2019-05-20T01:14:23.211Z,19.78
2019-05-20T01:15:22.700Z,19.72
2019-05-20T01:16:22.701Z,19.64
2019-05-20T01:17:22.688Z,19.72
2019-05-20T01:18:22.659Z,19.75
2019-05-20T01:19:23.248Z,19.70
2019-05-20T01:20:22.653Z,19.72
2019-05-20T01:21:22.652Z,19.68
2019-05-20T01:22:22.656Z,19.61
2019-05-20T01:23:22.625Z,19.64
2019-05-20T01:24:22.597Z,19.72
2019-05-20T01:25:23.250Z,19.70
2019-05-20T01:26:22.600Z,19.78
2019-05-20T01:27:22.608Z,19.71
2019-05-20T01:28:22.579Z,19.67
2019-05-20T01:29:22.553Z,19.67
2019-05-20T01:30:22.560Z,19.76
2019-05-20T01:31:23.061Z,19.80
2019-05-20T01:32:22.535Z,19.71
2019-05-20T01:33:22.534Z,19.85
2019-05-20T01:34:22.522Z,19.80
2019-05-20T01:35:22.484Z,19.78
2019-05-20T01:36:22.511Z,19.68
2019-05-20T01:37:23.502Z,19.79
2019-05-20T01:38:22.477Z,19.72
2019-05-20T01:39:22.480Z,19.68
2019-05-20T01:40:22.465Z,19.65
2019-05-20T01:41:22.446Z,19.64
2019-05-20T01:42:22.476Z,19.61
2019-05-20T01:43:22.937Z,19.70
2019-05-20T01:44:22.438Z,19.64
2019-05-20T01:45:22.404Z,19.58
2019-05-20T01:46:22.396Z,19.68
2019-05-20T01:47:22.387Z,19.70
2019-05-20T01:48:22.383Z,19.64
2019-05-20T01:49:22.915Z,19.61
2019-05-20T01:50:22.369Z,19.58
2019-05-20T01:51:22.378Z,19.55
2019-05-20T01:52:22.316Z,19.64
2019-05-20T01:53:22.337Z,19.61
2019-05-20T01:54:22.326Z,19.58
2019-05-20T01:55:22.757Z,19.57
2019-05-20T01:56:22.314Z,19.47
2019-05-20T01:57:22.349Z,19.53
2019-05-20T01:58:22.292Z,19.50
2019-05-20T01:59:22.289Z,19.43
2019-05-20T02:00:22.269Z,19.49
2019-05-20T02:01:22.615Z,19.50
2019-05-20T02:02:22.233Z,19.47
2019-05-20T02:03:31.132Z,19.43
2019-05-20T02:04:22.216Z,19.42
2019-05-20T02:05:22.217Z,19.47
2019-05-20T02:06:22.662Z,19.53
2019-05-20T02:07:22.196Z,19.47
2019-05-20T02:08:22.191Z,19.47
2019-05-20T02:09:22.168Z,19.52
2019-05-20T02:10:22.180Z,19.45
2019-05-20T02:11:22.559Z,19.40
2019-05-20T02:12:22.161Z,19.39
2019-05-20T02:13:22.149Z,19.43
2019-05-20T02:14:22.220Z,19.35
2019-05-20T02:15:22.130Z,19.39
2019-05-20T02:16:22.366Z,19.46
2019-05-20T02:17:22.099Z,19.31
2019-05-20T02:18:22.101Z,19.31
2019-05-20T02:19:22.079Z,19.27
2019-05-20T02:20:22.080Z,19.28
2019-05-20T02:21:22.472Z,19.30
2019-05-20T02:22:22.048Z,19.25
2019-05-20T02:23:22.053Z,19.39
2019-05-20T02:24:22.011Z,19.31
2019-05-20T02:25:22.072Z,19.31
2019-05-20T02:26:22.353Z,19.34
2019-05-20T02:27:22.003Z,19.31
2019-05-20T02:28:22.003Z,19.34
2019-05-20T02:29:21.989Z,19.38
2019-05-20T02:30:21.976Z,19.35
2019-05-20T02:31:22.261Z,19.30
2019-05-20T02:32:21.957Z,19.30
2019-05-20T02:33:21.958Z,19.25
2019-05-20T02:34:21.928Z,19.34
2019-05-20T02:35:21.921Z,19.27
2019-05-20T02:36:22.330Z,19.34
2019-05-20T02:37:21.885Z,19.28
2019-05-20T02:38:21.916Z,19.30
2019-05-20T02:39:26.014Z,19.31
2019-05-20T02:40:21.890Z,19.35
2019-05-20T02:41:22.192Z,19.32
2019-05-20T02:42:21.877Z,19.34
2019-05-20T02:43:21.860Z,19.31
2019-05-20T02:44:21.831Z,19.53
2019-05-20T02:45:21.884Z,19.50
2019-05-20T02:46:22.143Z,19.49
2019-05-20T02:47:21.803Z,19.52
2019-05-20T02:48:21.815Z,19.42
2019-05-20T02:49:21.807Z,19.32
2019-05-20T02:50:21.787Z,19.30
2019-05-20T02:51:22.167Z,19.35
2019-05-20T02:52:21.781Z,19.27
2019-05-20T02:53:21.748Z,19.30
2019-05-20T02:54:21.756Z,19.31
2019-05-20T02:55:21.760Z,19.30
2019-05-20T02:56:21.741Z,19.34
2019-05-20T02:57:21.963Z,19.31
2019-05-20T02:58:21.724Z,19.34
2019-05-20T02:59:21.700Z,19.30
2019-05-20T03:00:21.725Z,19.34
2019-05-20T03:01:22.191Z,19.34
2019-05-20T03:02:21.678Z,19.32
2019-05-20T03:03:21.970Z,19.35
2019-05-20T03:04:21.640Z,19.32
2019-05-20T03:05:21.625Z,19.32
2019-05-20T03:06:21.685Z,19.32
2019-05-20T03:07:21.622Z,19.30
2019-05-20T03:08:21.616Z,19.30
2019-05-20T03:09:22.042Z,19.35
2019-05-20T03:10:21.594Z,19.34
2019-05-20T03:11:21.612Z,19.47
2019-05-20T03:12:21.588Z,19.43
2019-05-20T03:13:21.554Z,19.42
2019-05-20T03:14:21.543Z,19.43
2019-05-20T03:15:22.063Z,19.50
2019-05-20T03:16:21.519Z,19.52
2019-05-20T03:17:21.568Z,19.43
2019-05-20T03:18:21.532Z,19.39
2019-05-20T03:19:21.503Z,19.52
2019-05-20T03:20:21.489Z,19.43
2019-05-20T03:21:21.681Z,19.45
2019-05-20T03:22:21.487Z,19.46
2019-05-20T03:23:21.471Z,19.43
2019-05-20T03:24:21.448Z,19.43
2019-05-20T03:25:21.438Z,19.38
2019-05-20T03:26:21.422Z,19.34
2019-05-20T03:27:21.622Z,19.34
2019-05-20T03:28:21.428Z,19.31
2019-05-20T03:29:21.396Z,19.32
2019-05-20T03:30:21.446Z,19.31
2019-05-20T03:31:21.450Z,19.34
2019-05-20T03:32:21.879Z,19.38
2019-05-20T03:33:21.370Z,19.34
2019-05-20T03:34:43.992Z,19.30
2019-05-20T03:35:21.394Z,19.27
2019-05-20T03:36:21.342Z,19.30
2019-05-20T03:37:21.321Z,19.35
2019-05-20T03:38:21.695Z,19.31
2019-05-20T03:39:21.312Z,19.32
2019-05-20T03:40:21.298Z,19.31
2019-05-20T03:41:21.284Z,19.30
2019-05-20T03:42:21.275Z,19.25
2019-05-20T03:43:21.279Z,19.34
2019-05-20T03:44:21.461Z,19.28
2019-05-20T03:45:21.292Z,19.35
2019-05-20T03:46:21.242Z,19.45
2019-05-20T03:47:21.263Z,19.46
2019-05-20T03:48:21.256Z,19.49
2019-05-20T03:49:21.611Z,19.53
2019-05-20T03:50:21.201Z,19.50
2019-05-20T03:51:21.214Z,19.47
2019-05-20T03:52:21.182Z,19.52
2019-05-20T03:53:21.202Z,19.55
2019-05-20T03:54:21.508Z,19.49
2019-05-20T03:55:21.161Z,19.50
2019-05-20T03:56:21.145Z,19.57
2019-05-20T03:57:21.139Z,19.52
2019-05-20T03:58:21.139Z,19.50
2019-05-20T03:59:21.566Z,19.67
2019-05-20T04:00:21.116Z,19.62
2019-05-20T04:01:21.105Z,19.60
2019-05-20T04:02:21.081Z,19.64
2019-05-20T04:03:21.080Z,19.67
2019-05-20T04:04:24.853Z,19.62
2019-05-20T04:05:21.105Z,19.65
2019-05-20T04:06:21.080Z,19.62
2019-05-20T04:07:21.076Z,19.65
2019-05-20T04:08:21.045Z,19.70
2019-05-20T04:09:21.221Z,19.62
2019-05-20T04:10:21.003Z,19.75
2019-05-20T04:11:21.012Z,19.65
2019-05-20T04:12:21.026Z,19.65
2019-05-20T04:13:20.961Z,19.68
2019-05-20T04:14:21.178Z,19.64
2019-05-20T04:15:21.021Z,19.68
2019-05-20T04:16:20.940Z,19.67
2019-05-20T04:17:20.931Z,19.70
2019-05-20T04:18:20.945Z,19.67
2019-05-20T04:19:21.403Z,19.72
2019-05-20T04:20:20.925Z,19.67
2019-05-20T04:21:20.911Z,19.67
2019-05-20T04:22:20.910Z,19.68
2019-05-20T04:23:20.887Z,19.76
2019-05-20T04:24:20.863Z,19.78
2019-05-20T04:25:21.126Z,19.75
2019-05-20T04:26:20.890Z,19.75
2019-05-20T04:27:20.856Z,19.61
2019-05-20T04:28:20.860Z,19.62
2019-05-20T04:29:20.836Z,19.58
2019-05-20T04:30:21.281Z,19.55
2019-05-20T04:31:20.830Z,19.50
2019-05-20T04:32:20.797Z,19.53
2019-05-20T04:33:20.787Z,19.60
2019-05-20T04:34:20.763Z,19.55
2019-05-20T04:35:23.168Z,19.61
2019-05-20T04:36:21.104Z,19.45
2019-05-20T04:37:20.748Z,19.47
2019-05-20T04:38:20.735Z,19.49
2019-05-20T04:39:20.731Z,19.40
2019-05-20T04:40:20.752Z,19.40
2019-05-20T04:41:20.724Z,19.27
2019-05-20T04:42:20.887Z,19.24
2019-05-20T04:43:20.683Z,19.25
2019-05-20T04:44:20.740Z,19.13
2019-05-20T04:45:20.683Z,19.13
2019-05-20T04:46:20.663Z,19.15
2019-05-20T04:47:20.653Z,19.05
2019-05-20T04:48:21.035Z,19.13
2019-05-20T04:49:20.654Z,19.05
2019-05-20T04:50:20.614Z,19.07
2019-05-20T04:51:20.612Z,19.09
2019-05-20T04:52:20.609Z,19.02
2019-05-20T04:53:20.597Z,19.05
2019-05-20T04:54:20.868Z,19.07
2019-05-20T04:55:20.580Z,19.13
2019-05-20T04:56:20.543Z,19.07
2019-05-20T04:57:20.560Z,19.15
2019-05-20T04:58:20.542Z,19.05
2019-05-20T04:59:20.530Z,19.10
2019-05-20T05:00:20.732Z,19.07
2019-05-20T05:01:20.560Z,19.02
2019-05-20T05:02:20.506Z,19.01
2019-05-20T05:03:20.504Z,19.12
2019-05-20T05:04:20.482Z,19.06
2019-05-20T05:05:35.333Z,19.05
2019-05-20T05:06:20.867Z,19.12
2019-05-20T05:07:20.445Z,19.12
2019-05-20T05:08:20.454Z,19.09
2019-05-20T05:09:20.447Z,19.13
2019-05-20T05:10:20.427Z,18.99
2019-05-20T05:11:20.415Z,19.02
2019-05-20T05:12:20.684Z,19.01
2019-05-20T05:13:20.402Z,18.96
2019-05-20T05:14:20.408Z,18.93
2019-05-20T05:15:20.421Z,18.96
2019-05-20T05:16:20.355Z,18.90
2019-05-20T05:17:20.601Z,18.83
2019-05-20T05:18:20.367Z,18.66
2019-05-20T05:19:20.331Z,18.69
2019-05-20T05:20:20.298Z,18.65
2019-05-20T05:21:20.309Z,18.60
2019-05-20T05:22:20.774Z,18.53
2019-05-20T05:23:20.283Z,18.56
2019-05-20T05:24:20.276Z,18.51
2019-05-20T05:25:20.281Z,18.62
2019-05-20T05:26:20.253Z,18.65
2019-05-20T05:27:20.255Z,18.62
2019-05-20T05:28:20.894Z,18.68
2019-05-20T05:29:20.249Z,18.60
2019-05-20T05:30:20.267Z,18.64
2019-05-20T05:31:20.259Z,18.68
2019-05-20T05:32:20.197Z,18.54
2019-05-20T05:33:20.222Z,18.64
2019-05-20T05:34:20.740Z,18.64
2019-05-20T05:35:20.181Z,18.65
2019-05-20T05:36:20.160Z,18.71
2019-05-20T05:37:20.156Z,18.65
2019-05-20T05:38:20.181Z,18.64
2019-05-20T05:39:20.424Z,18.47
2019-05-20T05:40:20.150Z,18.64
2019-05-20T05:41:20.125Z,18.64
2019-05-20T05:42:20.079Z,18.59
2019-05-20T05:43:20.143Z,18.62
2019-05-20T05:44:20.087Z,18.59
2019-05-20T05:45:20.437Z,18.64
2019-05-20T05:46:20.087Z,18.59
2019-05-20T05:47:20.070Z,18.64
2019-05-20T05:48:20.050Z,18.53
2019-05-20T05:49:20.034Z,18.60
2019-05-20T05:50:20.007Z,18.59
2019-05-20T05:51:20.444Z,18.56
2019-05-20T05:52:22.802Z,18.65
2019-05-20T05:53:20.027Z,18.66
2019-05-20T05:54:19.986Z,18.69
2019-05-20T05:55:19.947Z,18.71
2019-05-20T05:56:20.303Z,18.66
2019-05-20T05:57:19.941Z,18.66
2019-05-20T05:58:19.929Z,18.65
2019-05-20T05:59:19.930Z,18.57
2019-05-20T06:00:19.933Z,18.66
2019-05-20T06:01:19.911Z,18.68
2019-05-20T06:02:21.867Z,18.82
2019-05-20T06:03:19.956Z,18.78
2019-05-20T06:04:19.863Z,18.78
2019-05-20T06:05:19.880Z,18.75
2019-05-20T06:06:19.840Z,18.83
2019-05-20T06:07:19.884Z,18.87
2019-05-20T06:08:20.301Z,18.83
2019-05-20T06:09:19.829Z,18.74
2019-05-20T06:10:19.871Z,18.78
2019-05-20T06:11:19.806Z,18.75
2019-05-20T06:12:19.785Z,18.82
2019-05-20T06:13:19.783Z,18.66
2019-05-20T06:14:20.054Z,18.68
2019-05-20T06:15:19.744Z,18.66
2019-05-20T06:16:35.398Z,18.68
2019-05-20T06:17:19.725Z,18.53
2019-05-20T06:18:19.724Z,18.56
2019-05-20T06:19:19.727Z,18.56
2019-05-20T06:20:20.040Z,18.57
2019-05-20T06:21:19.701Z,18.57
2019-05-20T06:22:19.691Z,18.64
2019-05-20T06:23:19.688Z,18.59
2019-05-20T06:24:19.671Z,18.68
2019-05-20T06:25:19.636Z,18.71
2019-05-20T06:26:20.052Z,18.71
2019-05-20T06:27:19.644Z,18.64
2019-05-20T06:28:19.623Z,18.62
2019-05-20T06:29:19.611Z,18.57
2019-05-20T06:30:19.615Z,18.60
2019-05-20T06:31:19.608Z,18.59
2019-05-20T06:32:19.787Z,18.64
2019-05-20T06:33:19.581Z,18.64
2019-05-20T06:34:19.564Z,18.65
2019-05-20T06:35:19.571Z,18.64
2019-05-20T06:36:26.785Z,18.68
2019-05-20T06:37:19.576Z,18.65
2019-05-20T06:38:19.763Z,18.68
2019-05-20T06:39:19.517Z,18.78
2019-05-20T06:40:19.514Z,18.72
2019-05-20T06:41:19.506Z,18.75
2019-05-20T06:42:19.482Z,18.84
2019-05-20T06:43:19.462Z,18.83
2019-05-20T06:44:19.818Z,18.78
2019-05-20T06:45:19.486Z,18.76
2019-05-20T06:46:19.457Z,18.78
2019-05-20T06:47:19.441Z,18.82
2019-05-20T06:48:19.437Z,18.83
2019-05-20T06:49:19.418Z,18.87
2019-05-20T06:50:19.749Z,18.84
2019-05-20T06:51:19.394Z,18.87
2019-05-20T06:52:34.902Z,18.90
2019-05-20T06:53:19.410Z,18.91
2019-05-20T06:54:19.382Z,18.90
2019-05-20T06:55:19.344Z,18.97
2019-05-20T06:56:19.583Z,18.90
2019-05-20T06:57:19.333Z,18.96
2019-05-20T06:58:19.297Z,19.01
2019-05-20T06:59:19.334Z,18.93
2019-05-20T07:00:19.298Z,18.97
2019-05-20T07:01:19.597Z,18.97
2019-05-20T07:02:19.271Z,18.93
2019-05-20T07:03:19.263Z,18.91
2019-05-20T07:04:19.301Z,18.96
2019-05-20T07:05:19.267Z,18.93
2019-05-20T07:06:19.249Z,18.96
2019-05-20T07:07:21.145Z,18.86
2019-05-20T07:08:19.220Z,18.94
2019-05-20T07:09:19.225Z,18.90
2019-05-20T07:10:19.222Z,18.93
2019-05-20T07:11:19.196Z,18.84
2019-05-20T07:12:19.189Z,18.79
2019-05-20T07:13:19.449Z,18.86
2019-05-20T07:14:19.202Z,18.76
2019-05-20T07:15:19.203Z,18.83
2019-05-20T07:16:19.190Z,18.83
2019-05-20T07:17:19.176Z,18.84
2019-05-20T07:18:19.120Z,18.78
2019-05-20T07:19:19.559Z,18.79
2019-05-20T07:20:19.101Z,18.83
2019-05-20T07:21:19.100Z,18.78
2019-05-20T07:22:19.093Z,18.72
2019-05-20T07:23:19.080Z,18.82
2019-05-20T07:24:19.069Z,18.82
2019-05-20T07:25:19.271Z,18.82
2019-05-20T07:26:19.033Z,18.89
2019-05-20T07:27:19.048Z,18.93
2019-05-20T07:28:19.021Z,18.86
2019-05-20T07:29:19.008Z,18.87
2019-05-20T07:30:19.360Z,18.82
2019-05-20T07:31:18.982Z,18.83
2019-05-20T07:32:18.987Z,18.89
2019-05-20T07:33:18.972Z,18.84
2019-05-20T07:34:18.978Z,18.83
2019-05-20T07:35:29.525Z,18.84
2019-05-20T07:36:19.172Z,18.86
2019-05-20T07:37:18.939Z,18.83
2019-05-20T07:38:18.947Z,18.76
2019-05-20T07:39:18.915Z,18.76
2019-05-20T07:40:18.917Z,18.74
2019-05-20T07:41:19.244Z,18.89
2019-05-20T07:42:18.894Z,18.84
2019-05-20T07:43:18.857Z,18.86
2019-05-20T07:44:18.861Z,18.89
2019-05-20T07:45:18.866Z,19.01
2019-05-20T07:46:19.048Z,18.94
2019-05-20T07:47:18.849Z,19.01
2019-05-20T07:48:18.856Z,19.10
2019-05-20T07:49:18.811Z,19.09
2019-05-20T07:50:18.819Z,19.07
2019-05-20T07:51:18.796Z,19.13
2019-05-20T07:52:19.037Z,19.12
2019-05-20T07:53:18.787Z,19.10
2019-05-20T07:54:18.756Z,19.09
2019-05-20T07:55:18.747Z,19.15
2019-05-20T07:56:18.733Z,19.06
2019-05-20T07:57:18.726Z,19.05
2019-05-20T07:58:19.214Z,19.05
2019-05-20T07:59:18.713Z,19.02
2019-05-20T08:00:18.746Z,18.97
2019-05-20T08:01:18.704Z,19.12
2019-05-20T08:02:18.695Z,19.07
2019-05-20T08:03:18.690Z,19.05
2019-05-20T08:04:18.969Z,19.06
2019-05-20T08:05:18.635Z,19.02
2019-05-20T08:06:18.654Z,19.10
2019-05-20T08:07:29.990Z,19.05
2019-05-20T08:08:18.669Z,19.15
2019-05-20T08:09:18.619Z,19.15
2019-05-20T08:10:18.797Z,19.06
2019-05-20T08:11:18.646Z,19.09
2019-05-20T08:12:18.587Z,19.06
2019-05-20T08:13:18.577Z,19.05
2019-05-20T08:14:18.587Z,19.09
2019-05-20T08:15:18.561Z,19.09
2019-05-20T08:16:19.049Z,18.97
2019-05-20T08:17:18.535Z,18.91
2019-05-20T08:18:20.267Z,18.96
2019-05-20T08:19:18.520Z,19.01
2019-05-20T08:20:18.510Z,18.96
2019-05-20T08:21:18.605Z,18.87
2019-05-20T08:22:18.716Z,18.90
2019-05-20T08:23:18.475Z,18.89
2019-05-20T08:24:18.460Z,18.90
2019-05-20T08:25:18.472Z,18.99
2019-05-20T08:26:18.427Z,19.01
2019-05-20T08:27:18.685Z,18.96
2019-05-20T08:28:18.410Z,18.94
2019-05-20T08:29:18.397Z,18.97
2019-05-20T08:30:18.422Z,18.83
2019-05-20T08:31:18.375Z,18.90
2019-05-20T08:32:18.387Z,18.89
2019-05-20T08:33:18.744Z,18.89
2019-05-20T08:34:18.374Z,18.82
2019-05-20T08:35:18.370Z,18.90
2019-05-20T08:36:18.344Z,18.90
2019-05-20T08:37:18.347Z,18.94
2019-05-20T08:38:18.560Z,18.99
2019-05-20T08:39:18.315Z,18.97
2019-05-20T08:40:18.293Z,18.99
2019-05-20T08:41:18.303Z,18.97
2019-05-20T08:42:18.267Z,18.99
2019-05-20T08:43:18.291Z,18.99
2019-05-20T08:44:18.532Z,19.07
2019-05-20T08:45:18.257Z,19.02
2019-05-20T08:46:18.273Z,19.09
2019-05-20T08:47:18.231Z,19.05
2019-05-20T08:48:18.217Z,19.10
2019-05-20T08:49:18.259Z,19.05
2019-05-20T08:50:18.649Z,19.09
2019-05-20T08:51:18.193Z,19.07
2019-05-20T08:52:18.203Z,19.05
2019-05-20T08:53:18.176Z,19.10
2019-05-20T08:54:18.166Z,19.05
2019-05-20T08:55:18.157Z,19.10
2019-05-20T08:56:18.387Z,19.07
2019-05-20T08:57:18.180Z,19.10
2019-05-20T08:58:18.157Z,19.02
2019-05-20T08:59:18.152Z,19.10
2019-05-20T09:00:22.955Z,19.12
2019-05-20T09:01:18.496Z,19.15
2019-05-20T09:02:18.433Z,19.13
2019-05-20T09:03:18.063Z,19.15
2019-05-20T09:04:18.101Z,19.17
2019-05-20T09:05:18.098Z,19.16
2019-05-20T09:06:20.844Z,19.13
2019-05-20T09:07:18.020Z,19.16
2019-05-20T09:08:18.021Z,19.10
2019-05-20T09:09:18.001Z,19.20
2019-05-20T09:10:18.460Z,19.06
2019-05-20T09:11:18.257Z,19.20
2019-05-20T09:12:18.031Z,19.07
2019-05-20T09:13:17.987Z,19.15
2019-05-20T09:14:17.965Z,19.01
2019-05-20T09:15:17.978Z,19.12
2019-05-20T09:16:18.238Z,19.05
2019-05-20T09:17:17.992Z,19.05
2019-05-20T09:18:17.944Z,19.07
2019-05-20T09:19:17.909Z,19.09
2019-05-20T09:20:17.897Z,19.10
2019-05-20T09:21:18.439Z,19.06
2019-05-20T09:22:17.902Z,19.10
2019-05-20T09:23:17.873Z,19.07
2019-05-20T09:24:18.948Z,19.09
2019-05-20T09:25:17.838Z,19.13
2019-05-20T09:26:17.850Z,19.13
2019-05-20T09:27:18.613Z,19.05
2019-05-20T09:28:17.846Z,18.97
2019-05-20T09:29:17.823Z,18.99
2019-05-20T09:30:17.827Z,18.97
2019-05-20T09:31:17.812Z,19.05
2019-05-20T09:32:17.805Z,18.90
2019-05-20T09:33:18.094Z,18.93
2019-05-20T09:34:17.794Z,18.89
2019-05-20T09:35:17.753Z,18.86
2019-05-20T09:36:17.768Z,18.89
2019-05-20T09:37:17.731Z,18.87
2019-05-20T09:38:20.915Z,18.93
2019-05-20T09:39:17.990Z,18.94
2019-05-20T09:40:17.693Z,18.90
2019-05-20T09:41:17.695Z,18.90
2019-05-20T09:42:17.732Z,18.90
2019-05-20T09:43:17.692Z,18.87
2019-05-20T09:44:17.679Z,18.89
2019-05-20T09:45:17.893Z,18.84
2019-05-20T09:46:17.650Z,18.78
2019-05-20T09:47:17.636Z,18.79
2019-05-20T09:48:17.633Z,18.90
2019-05-20T09:49:17.611Z,18.90
2019-05-20T09:50:17.606Z,18.87
2019-05-20T09:51:18.006Z,18.78
2019-05-20T09:52:17.584Z,18.86
2019-05-20T09:53:17.624Z,18.90
2019-05-20T09:54:17.572Z,18.89
2019-05-20T09:55:17.612Z,18.87
2019-05-20T09:56:17.541Z,18.79
2019-05-20T09:57:18.151Z,18.84
2019-05-20T09:58:17.511Z,18.76
2019-05-20T09:59:17.528Z,18.79
2019-05-20T10:00:17.505Z,18.74
2019-05-20T10:01:17.487Z,18.74
2019-05-20T10:02:17.491Z,18.78
2019-05-20T10:03:17.771Z,18.66
2019-05-20T10:04:17.436Z,18.68
2019-05-20T10:05:17.462Z,18.64
2019-05-20T10:06:17.466Z,18.68
2019-05-20T10:07:17.444Z,18.65
2019-05-20T10:08:17.419Z,18.68
2019-05-20T10:09:17.775Z,18.71
2019-05-20T10:10:17.382Z,18.79
2019-05-20T10:11:17.424Z,18.75
2019-05-20T10:12:17.371Z,18.78
2019-05-20T10:13:17.367Z,18.93
2019-05-20T10:14:17.350Z,18.78
2019-05-20T10:15:17.693Z,18.75
2019-05-20T10:16:17.373Z,18.89
2019-05-20T10:17:17.322Z,18.86
2019-05-20T10:18:35.614Z,18.84
2019-05-20T10:19:17.303Z,18.83
2019-05-20T10:20:17.642Z,18.74
2019-05-20T10:21:17.297Z,18.72
2019-05-20T10:22:17.342Z,18.87
2019-05-20T10:23:17.254Z,18.86
2019-05-20T10:24:17.248Z,18.86
2019-05-20T10:25:17.647Z,18.86
2019-05-20T10:26:17.240Z,18.94
2019-05-20T10:27:17.210Z,18.86
2019-05-20T10:28:17.240Z,18.89
2019-05-20T10:29:17.183Z,19.06
2019-05-20T10:30:17.385Z,19.02
2019-05-20T10:31:17.200Z,19.09
2019-05-20T10:32:17.157Z,19.07
2019-05-20T10:33:17.168Z,19.13
2019-05-20T10:34:17.159Z,19.06
2019-05-20T10:35:17.450Z,19.06
2019-05-20T10:36:17.133Z,19.05
2019-05-20T10:37:17.123Z,19.02
2019-05-20T10:38:17.123Z,18.99
2019-05-20T10:39:17.117Z,18.99
2019-05-20T10:40:17.750Z,18.94
2019-05-20T10:41:17.102Z,19.01
2019-05-20T10:42:17.101Z,18.89
2019-05-20T10:43:17.054Z,18.91
2019-05-20T10:44:17.049Z,18.94
2019-05-20T10:45:17.053Z,18.94
2019-05-20T10:46:17.217Z,19.05
2019-05-20T10:47:17.023Z,18.96
2019-05-20T10:48:17.025Z,18.97
2019-05-20T10:49:17.019Z,19.10
2019-05-20T10:50:16.968Z,19.02
2019-05-20T10:51:17.369Z,18.99
2019-05-20T10:52:17.005Z,18.96
2019-05-20T10:53:16.970Z,18.97
2019-05-20T10:54:16.955Z,19.06
2019-05-20T10:55:16.936Z,19.07
2019-05-20T10:56:17.253Z,19.12
2019-05-20T10:57:16.920Z,19.13
2019-05-20T10:58:16.901Z,19.16
2019-05-20T10:59:16.944Z,19.13
2019-05-20T11:00:16.893Z,19.17
2019-05-20T11:01:16.856Z,19.24
2019-05-20T11:02:17.178Z,19.15
2019-05-20T11:03:16.842Z,19.15
2019-05-20T11:04:16.851Z,19.16
2019-05-20T11:05:16.828Z,19.13
2019-05-20T11:06:16.852Z,19.05
2019-05-20T11:07:16.833Z,19.06
2019-05-20T11:08:17.156Z,19.07
2019-05-20T11:09:16.829Z,19.06
2019-05-20T11:10:16.789Z,19.13
2019-05-20T11:11:16.760Z,19.13
2019-05-20T11:12:16.777Z,19.13
2019-05-20T11:13:16.774Z,19.05
2019-05-20T11:14:17.185Z,19.17
2019-05-20T11:15:16.724Z,19.13
2019-05-20T11:16:16.710Z,19.15
2019-05-20T11:17:16.766Z,19.12
2019-05-20T11:18:16.712Z,19.13
2019-05-20T11:19:16.663Z,19.10
2019-05-20T11:20:16.973Z,19.10
2019-05-20T11:21:16.675Z,19.06
2019-05-20T11:22:16.666Z,19.12
2019-05-20T11:23:16.636Z,19.05
2019-05-20T11:24:16.691Z,19.17
2019-05-20T11:25:16.670Z,19.12
2019-05-20T11:26:16.871Z,19.12
2019-05-20T11:27:16.601Z,19.20
2019-05-20T11:28:16.586Z,19.17
2019-05-20T11:29:16.604Z,19.27
2019-05-20T11:30:16.572Z,19.23
2019-05-20T11:31:16.930Z,19.23
2019-05-20T11:32:16.555Z,19.17
2019-05-20T11:33:16.550Z,19.32
2019-05-20T11:34:16.533Z,19.32
2019-05-20T11:35:16.544Z,19.27
2019-05-20T11:36:16.518Z,19.21
2019-05-20T11:37:16.820Z,19.28
2019-05-20T11:38:16.508Z,19.12
2019-05-20T11:39:31.234Z,19.12
2019-05-20T11:40:16.488Z,19.12
2019-05-20T11:41:16.467Z,19.15
2019-05-20T11:42:16.466Z,19.13
2019-05-20T11:43:16.453Z,19.20
2019-05-20T11:44:16.434Z,19.15
2019-05-20T11:45:16.455Z,19.23
2019-05-20T11:46:16.412Z,19.27
2019-05-20T11:47:16.399Z,19.39
2019-05-20T11:48:16.389Z,19.25
2019-05-20T11:49:16.391Z,19.34
2019-05-20T11:50:16.502Z,19.53
2019-05-20T11:51:16.372Z,19.52
2019-05-20T11:52:16.380Z,19.50
2019-05-20T11:53:16.348Z,19.64
2019-05-20T11:54:16.336Z,19.71
2019-05-20T11:55:16.345Z,19.65
2019-05-20T11:56:16.357Z,19.67
2019-05-20T11:57:16.326Z,19.72
2019-05-20T11:58:16.686Z,19.64
2019-05-20T11:59:16.574Z,19.64
2019-05-20T12:00:16.294Z,19.67
2019-05-20T12:01:16.288Z,19.70
2019-05-20T12:02:16.262Z,19.58
2019-05-20T12:03:16.238Z,19.64
2019-05-20T12:04:16.247Z,19.50
2019-05-20T12:05:16.243Z,19.52
2019-05-20T12:06:16.245Z,19.67
2019-05-20T12:07:16.198Z,19.71
2019-05-20T12:08:16.205Z,19.64
2019-05-20T12:09:16.194Z,19.76
2019-05-20T12:10:16.167Z,19.78
2019-05-20T12:11:16.224Z,19.76
2019-05-20T12:12:16.171Z,19.76
2019-05-20T12:13:16.181Z,19.82
2019-05-20T12:14:16.140Z,19.83
2019-05-20T12:15:16.136Z,19.94
2019-05-20T12:16:16.162Z,19.97
2019-05-20T12:17:16.118Z,20.02
2019-05-20T12:18:16.108Z,20.05
2019-05-20T12:19:16.189Z,20.08
2019-05-20T12:20:16.083Z,20.04
2019-05-20T12:21:16.082Z,20.01
2019-05-20T12:22:16.059Z,19.89
2019-05-20T12:23:16.058Z,19.87
2019-05-20T12:24:16.232Z,19.90
2019-05-20T12:25:16.030Z,19.90
2019-05-20T12:26:16.073Z,20.00
2019-05-20T12:27:16.092Z,19.85
2019-05-20T12:28:16.004Z,19.80
2019-05-20T12:29:16.021Z,19.92
2019-05-20T12:30:16.273Z,19.79
2019-05-20T12:31:16.000Z,19.72
2019-05-20T12:32:15.972Z,19.80
2019-05-20T12:33:18.982Z,19.85
2019-05-20T12:34:15.949Z,19.89
2019-05-20T12:35:15.948Z,19.94
2019-05-20T12:36:15.933Z,19.89
2019-05-20T12:37:15.931Z,19.75
2019-05-20T12:38:15.948Z,19.68
2019-05-20T12:39:15.897Z,19.60
2019-05-20T12:40:15.895Z,19.53
2019-05-20T12:41:15.896Z,19.43
2019-05-20T12:42:16.281Z,19.53
2019-05-20T12:43:15.870Z,19.57
2019-05-20T12:44:15.878Z,19.67
2019-05-20T12:45:15.854Z,19.61
2019-05-20T12:46:15.833Z,19.57
2019-05-20T12:47:15.835Z,19.55
2019-05-20T12:48:15.846Z,19.52
2019-05-20T12:49:15.912Z,19.62
2019-05-20T12:50:15.835Z,19.64
2019-05-20T12:51:15.840Z,19.65
2019-05-20T12:52:15.758Z,19.78